Time;durP1;ratioP1;P1;durP2;ratioP2;P2;SDS_P1;SDS_P2;PMS_P1;PMS_P2;Temp;Humidity;BMP_temperature;BMP_pressure;BME280_temperature;BME280_humidity;BME280_pressure;Samples;Min_cycle;Max_cycle;Signal;HPM_P1;HPM_P2
2022/11/03 00:01:10;;;;;;;8.05;1.77;;;;;;;;;;5072256;28;20520;-72
2022/11/03 00:03:37;;;;;;;12.77;2.33;;;;;;;;;;5072677;28;20147;-74
2022/11/03 00:06:06;;;;;;;12.52;2.17;;;;;;;;;;5072291;28;20057;-74
2022/11/03 00:08:40;;;;;;;10.48;2.28;;;;;;;;;;5072097;28;20036;-75
2022/11/03 00:11:10;;;;;;;12.32;2.42;;;;;;;;;;5072029;28;20567;-76
2022/11/03 00:13:37;;;;;;;13.13;2.38;;;;;;;;;;5072055;28;20044;-76
2022/11/03 00:16:04;;;;;;;12.60;2.40;;;;;;;;;;5072473;28;20166;-76
2022/11/03 00:18:30;;;;;;;13.20;2.35;;;;;;;;;;5072269;28;20095;-76
2022/11/03 00:21:04;;;;;;;12.10;2.47;;;;;;;;;;5072197;28;20060;-76
2022/11/03 00:23:32;;;;;;;15.90;2.67;;;;;;;;;;5072017;28;20040;-77
2022/11/03 00:26:03;;;;;;;10.88;2.30;;;;;;;;;;5072172;28;20055;-76
2022/11/03 00:28:31;;;;;;;9.80;2.28;;;;;;;;;;5072123;28;20048;-77
2022/11/03 00:30:57;;;;;;;;;;;;;;;;;;5072108;28;20058;-76
2022/11/03 00:33:26;;;;;;;16.42;2.15;;;;;;;;;;5071670;28;20027;-76
2022/11/03 00:35:55;;;;;;;15.05;2.33;;;;;;;;;;5071921;28;20051;-76
2022/11/03 00:38:22;;;;;;;16.77;2.22;;;;;;;;;;5071733;28;20060;-76
2022/11/03 00:40:55;;;;;;;15.40;2.30;;;;;;;;;;5071964;28;20066;-76
2022/11/03 00:43:24;;;;;;;17.92;2.92;;;;;;;;;;5071225;28;20115;-77
2022/11/03 00:45:51;;;;;;;18.75;2.67;;;;;;;;;;5070580;28;20219;-77
2022/11/03 00:48:31;;;;;;;16.73;2.47;;;;;;;;;;5071763;28;20131;-76
2022/11/03 00:50:58;;;;;;;14.55;2.38;;;;;;;;;;5071726;28;20132;-77
2022/11/03 00:53:25;;;;;;;12.73;2.30;;;;;;;;;;5056161;28;20476;-76
2022/11/03 00:55:53;;;;;;;12.95;2.65;;;;;;;;;;5069893;28;20080;-76
2022/11/03 00:58:19;;;;;;;16.83;3.17;;;;;;;;;;5071241;28;20103;-75
2022/11/03 01:00:48;;;;;;;17.38;2.90;;;;;;;;;;5071560;28;20055;-75
2022/11/03 01:03:15;;;;;;;17.27;3.03;;;;;;;;;;5071536;28;20045;-75
2022/11/03 01:08:33;;;;;;;15.75;2.40;;;;;;;;;;5071710;28;20050;-75
2022/11/03 01:11:44;;;;;;;14.63;2.88;;;;;;;;;;5071224;28;20567;-76
2022/11/03 01:14:14;;;;;;;15.50;2.42;;;;;;;;;;5071609;28;20092;-75
2022/11/03 01:16:41;;;;;;;17.88;3.38;;;;;;;;;;5071590;28;20120;-75
2022/11/03 01:19:08;;;;;;;10.90;2.15;;;;;;;;;;5071361;28;20203;-75
2022/11/03 01:21:34;;;;;;;15.75;2.53;;;;;;;;;;5071222;28;20067;-75
2022/11/03 01:24:01;;;;;;;15.88;3.10;;;;;;;;;;5070438;28;20083;-75
2022/11/03 01:26:28;;;;;;;12.57;2.13;;;;;;;;;;5071199;28;20080;-75
2022/11/03 01:28:55;;;;;;;18.67;3.20;;;;;;;;;;5071471;28;20052;-75
2022/11/03 01:31:22;;;;;;;12.98;2.30;;;;;;;;;;5071211;28;20273;-75
2022/11/03 01:33:51;;;;;;;11.95;2.33;;;;;;;;;;5071407;28;20084;-75
2022/11/03 01:36:18;;;;;;;12.98;2.17;;;;;;;;;;5071157;28;20535;-75
2022/11/03 01:38:46;;;;;;;17.67;3.15;;;;;;;;;;5071056;28;20099;-75
2022/11/03 01:41:14;;;;;;;11.18;2.30;;;;;;;;;;5071430;28;20084;-75
2022/11/03 01:43:40;;;;;;;;;;;;;;;;;;5071481;28;20163;-76
2022/11/03 01:46:09;;;;;;;17.95;2.60;;;;;;;;;;5070979;28;19938;-75
2022/11/03 01:48:39;;;;;;;16.27;2.50;;;;;;;;;;5070940;28;20041;-75
2022/11/03 01:51:08;;;;;;;12.88;2.15;;;;;;;;;;5071037;28;20088;-75
2022/11/03 01:53:40;;;;;;;11.48;2.47;;;;;;;;;;5071337;28;20393;-75
2022/11/03 01:56:08;;;;;;;13.43;3.00;;;;;;;;;;5074967;28;20458;-75
2022/11/03 01:58:34;;;;;;;;;;;;;;;;;;5075066;28;20080;-75
2022/11/03 02:01:01;;;;;;;18.02;4.43;;;;;;;;;;5074242;28;20007;-74
2022/11/03 02:03:31;;;;;;;14.27;2.27;;;;;;;;;;5074612;28;20127;-74
2022/11/03 02:06:01;;;;;;;12.48;2.38;;;;;;;;;;5074646;28;20442;-74
2022/11/03 02:08:28;;;;;;;;;;;;;;;;;;5074820;28;20128;-75
2022/11/03 02:12:04;;;;;;;11.25;1.70;;;;;;;;;;5074624;28;20001;-74
2022/11/03 02:13:49;;;;;;;10.68;1.88;;;;;;;;;;5074276;28;20083;-75
2022/11/03 02:16:19;;;;;;;10.38;2.22;;;;;;;;;;5074535;28;20055;-75
2022/11/03 02:18:46;;;;;;;;;;;;;;;;;;5074695;28;20529;-74
2022/11/03 02:21:26;;;;;;;12.20;2.03;;;;;;;;;;5074222;28;19920;-75
2022/11/03 02:24:08;;;;;;;7.88;1.65;;;;;;;;;;5074483;28;20049;-74
2022/11/03 02:26:35;;;;;;;9.90;2.10;;;;;;;;;;5072859;28;20079;-75
2022/11/03 02:29:03;;;;;;;12.80;2.10;;;;;;;;;;5073969;28;20491;-74
2022/11/03 02:31:46;;;;;;;11.60;2.40;;;;;;;;;;5067766;28;20072;-74
2022/11/03 02:34:20;;;;;;;8.93;2.10;;;;;;;;;;5074239;28;20045;-74
2022/11/03 02:36:54;;;;;;;12.90;2.15;;;;;;;;;;5073914;28;20071;-74
2022/11/03 02:39:27;;;;;;;16.15;2.10;;;;;;;;;;5073838;28;20527;-74
2022/11/03 02:41:56;;;;;;;16.23;2.25;;;;;;;;;;5072628;28;20052;-74
2022/11/03 02:44:24;;;;;;;13.85;2.25;;;;;;;;;;5073906;28;20056;-74
2022/11/03 02:46:53;;;;;;;10.23;2.45;;;;;;;;;;5073727;28;20115;-75
2022/11/03 02:49:20;;;;;;;12.55;1.80;;;;;;;;;;5073590;28;20051;-75
2022/11/03 02:51:46;;;;;;;11.87;2.07;;;;;;;;;;5072297;28;20135;-75
2022/11/03 02:54:18;;;;;;;9.57;2.20;;;;;;;;;;5073647;28;20102;-75
2022/11/03 02:57:04;;;;;;;14.93;2.58;;;;;;;;;;5073466;28;20143;-75
2022/11/03 02:59:36;;;;;;;11.03;2.13;;;;;;;;;;5073760;28;20111;-75
2022/11/03 03:02:08;;;;;;;12.73;2.22;;;;;;;;;;5073453;28;20579;-75
2022/11/03 03:04:43;;;;;;;13.23;2.38;;;;;;;;;;5073483;28;20064;-75
2022/11/03 03:07:14;;;;;;;11.95;2.15;;;;;;;;;;5072833;28;20127;-75
2022/11/03 03:09:50;;;;;;;20.48;2.97;;;;;;;;;;5073503;28;20461;-75
2022/11/03 03:12:19;;;;;;;15.30;3.00;;;;;;;;;;5073402;28;20567;-75
2022/11/03 03:14:47;;;;;;;12.60;2.30;;;;;;;;;;5073475;28;20087;-75
2022/11/03 03:17:30;;;;;;;14.80;2.28;;;;;;;;;;5073311;28;20513;-75
2022/11/03 03:20:05;;;;;;;13.98;2.90;;;;;;;;;;5073529;28;20444;-75
2022/11/03 03:22:42;;;;;;;14.18;2.70;;;;;;;;;;5073105;28;20072;-75
2022/11/03 03:25:38;;;;;;;9.32;2.08;;;;;;;;;;5072966;28;20054;-75
2022/11/03 03:28:14;;;;;;;13.10;2.10;;;;;;;;;;5064113;28;20045;-75
2022/11/03 03:30:42;;;;;;;9.57;1.67;;;;;;;;;;5073176;28;20119;-75
2022/11/03 03:33:16;;;;;;;14.27;2.33;;;;;;;;;;5073050;28;20055;-75
2022/11/03 03:35:45;;;;;;;13.07;1.75;;;;;;;;;;5072680;28;20065;-75
2022/11/03 03:38:17;;;;;;;7.28;1.90;;;;;;;;;;5073036;28;20099;-76
2022/11/03 03:40:46;;;;;;;9.27;1.48;;;;;;;;;;5072691;28;20058;-75
2022/11/03 03:43:13;;;;;;;12.32;2.15;;;;;;;;;;5072957;28;20127;-75
2022/11/03 03:45:41;;;;;;;13.45;2.38;;;;;;;;;;5072594;28;20059;-75
2022/11/03 03:48:08;;;;;;;12.00;2.17;;;;;;;;;;5072722;28;20466;-75
2022/11/03 03:50:37;;;;;;;14.63;2.30;;;;;;;;;;5072510;28;20575;-75
2022/11/03 03:53:06;;;;;;;10.55;1.80;;;;;;;;;;5071096;28;20079;-75
2022/11/03 03:55:36;;;;;;;12.73;1.67;;;;;;;;;;5072740;28;20048;-75
2022/11/03 03:58:03;;;;;;;12.35;2.03;;;;;;;;;;5072324;28;20048;-75
2022/11/03 04:00:31;;;;;;;6.70;1.90;;;;;;;;;;5072611;28;20486;-75
2022/11/03 04:02:59;;;;;;;15.85;2.17;;;;;;;;;;5070901;28;20052;-75
2022/11/03 04:05:25;;;;;;;14.82;2.28;;;;;;;;;;5072563;28;20135;-75
2022/11/03 04:07:52;;;;;;;10.93;1.92;;;;;;;;;;5072202;28;20118;-75
2022/11/03 04:10:19;;;;;;;8.70;1.92;;;;;;;;;;5072315;28;20119;-75
2022/11/03 04:23:52;;;;;;;10.52;1.60;;;;;;;;;;5072311;28;20052;-75
2022/11/03 04:26:21;;;;;;;10.65;1.73;;;;;;;;;;5072279;28;20056;-75
2022/11/03 04:28:48;;;;;;;11.00;1.92;;;;;;;;;;5072054;28;20044;-75
2022/11/03 04:31:16;;;;;;;14.38;1.45;;;;;;;;;;5071905;28;20045;-75
2022/11/03 04:33:43;;;;;;;10.93;2.00;;;;;;;;;;5072242;28;20051;-75
2022/11/03 04:36:16;;;;;;;9.73;1.52;;;;;;;;;;5071769;28;20555;-75
2022/11/03 04:38:43;;;;;;;13.18;2.10;;;;;;;;;;5071964;28;20079;-76
2022/11/03 04:41:18;;;;;;;9.73;1.50;;;;;;;;;;5071987;28;20102;-75
2022/11/03 04:43:48;;;;;;;10.00;1.80;;;;;;;;;;5072038;28;20132;-76
2022/11/03 04:46:21;;;;;;;10.07;1.52;;;;;;;;;;5071864;28;20080;-76
2022/11/03 04:48:48;;;;;;;11.13;1.70;;;;;;;;;;5071903;28;20048;-76
2022/11/03 04:51:21;;;;;;;10.20;1.52;;;;;;;;;;5071892;28;20060;-75
2022/11/03 04:54:00;;;;;;;8.85;1.58;;;;;;;;;;5070805;28;20131;-76
2022/11/03 04:56:27;;;;;;;7.70;1.40;;;;;;;;;;5070376;28;20072;-75
2022/11/03 04:58:53;;;;;;;9.88;2.10;;;;;;;;;;5071482;28;20052;-75
2022/11/03 05:01:21;;;;;;;10.02;1.77;;;;;;;;;;5070455;28;20127;-75
2022/11/03 05:03:52;;;;;;;9.38;1.23;;;;;;;;;;5070334;28;20052;-76
2022/11/03 05:06:19;;;;;;;14.20;2.50;;;;;;;;;;5071630;28;20060;-75
2022/11/03 05:08:48;;;;;;;5.18;1.30;;;;;;;;;;5071427;28;20131;-75
2022/11/03 05:11:42;;;;;;;12.63;1.63;;;;;;;;;;5070322;28;20080;-75
2022/11/03 05:14:20;;;;;;;8.63;1.48;;;;;;;;;;5069487;28;20406;-75
2022/11/03 05:16:46;;;;;;;;;;;;;;;;;;5071975;28;20049;-75
2022/11/03 05:19:18;;;;;;;13.02;1.60;;;;;;;;;;5071479;28;19966;-75
2022/11/03 05:21:47;;;;;;;12.00;1.70;;;;;;;;;;5071203;28;20052;-75
2022/11/03 05:24:13;;;;;;;9.07;1.67;;;;;;;;;;5071829;28;20063;-75
2022/11/03 05:26:47;;;;;;;11.32;1.50;;;;;;;;;;5071199;28;20096;-75
2022/11/03 05:29:15;;;;;;;6.55;1.40;;;;;;;;;;5072944;28;20131;-75
2022/11/03 05:31:42;;;;;;;9.40;1.38;;;;;;;;;;5075656;28;20136;-75
2022/11/03 05:34:20;;;;;;;9.60;1.83;;;;;;;;;;5074349;28;20498;-76
2022/11/03 05:36:47;;;;;;;11.25;1.88;;;;;;;;;;5074129;28;20407;-75
2022/11/03 05:39:19;;;;;;;11.68;1.92;;;;;;;;;;5075280;28;20472;-75
2022/11/03 05:41:46;;;;;;;6.85;1.83;;;;;;;;;;5074954;28;20549;-75
2022/11/03 05:44:25;;;;;;;13.15;1.92;;;;;;;;;;5074816;28;20084;-75
2022/11/03 05:46:53;;;;;;;11.25;1.73;;;;;;;;;;5073574;28;20119;-75
2022/11/03 05:49:21;;;;;;;12.18;1.63;;;;;;;;;;5075215;28;20071;-75
2022/11/03 05:51:49;;;;;;;10.52;1.90;;;;;;;;;;5074985;28;20052;-75
2022/11/03 05:54:24;;;;;;;8.32;1.98;;;;;;;;;;5073621;28;20136;-75
2022/11/03 05:56:50;;;;;;;11.30;2.25;;;;;;;;;;5074962;28;20124;-75
2022/11/03 05:59:20;;;;;;;8.73;1.98;;;;;;;;;;5074567;28;20133;-75
2022/11/03 06:01:46;;;;;;;7.97;2.10;;;;;;;;;;5074535;28;20053;-75
2022/11/03 06:04:13;;;;;;;10.50;1.98;;;;;;;;;;5074570;28;20052;-75
2022/11/03 06:06:39;;;;;;;11.05;1.92;;;;;;;;;;5074722;28;20086;-75
2022/11/03 06:09:33;;;;;;;8.65;1.50;;;;;;;;;;5074610;28;20051;-75
2022/11/03 06:12:00;;;;;;;9.65;1.65;;;;;;;;;;5071839;28;20054;-75
2022/11/03 06:14:28;;;;;;;8.10;1.55;;;;;;;;;;5074926;28;20115;-75
2022/11/03 06:17:04;;;;;;;9.18;1.70;;;;;;;;;;5073313;28;20080;-75
2022/11/03 06:19:35;;;;;;;11.23;1.77;;;;;;;;;;5074905;28;20475;-75
2022/11/03 06:22:12;;;;;;;7.75;1.65;;;;;;;;;;5074205;28;20139;-74
2022/11/03 06:24:39;;;;;;;9.77;2.63;;;;;;;;;;5073031;28;20084;-74
2022/11/03 06:27:08;;;;;;;5.85;2.08;;;;;;;;;;5074434;28;20055;-74
2022/11/03 06:29:36;;;;;;;12.38;2.63;;;;;;;;;;5074044;28;20099;-74
2022/11/03 06:32:02;;;;;;;;;;;;;;;;;;5074354;28;20514;-74
2022/11/03 06:34:48;;;;;;;8.00;1.90;;;;;;;;;;5072975;28;20003;-74
2022/11/03 06:37:22;;;;;;;21.95;2.97;;;;;;;;;;5073901;28;20044;-74
2022/11/03 06:39:49;;;;;;;10.40;1.60;;;;;;;;;;5072451;28;20582;-74
2022/11/03 06:42:18;;;;;;;12.48;2.90;;;;;;;;;;5073080;28;20053;-74
2022/11/03 06:44:46;;;;;;;9.95;2.00;;;;;;;;;;5073804;28;20096;-74
2022/11/03 06:47:18;;;;;;;10.10;2.47;;;;;;;;;;5073755;28;20082;-76
2022/11/03 06:49:46;;;;;;;7.95;2.10;;;;;;;;;;5073681;28;20049;-73
2022/11/03 06:52:26;;;;;;;10.57;2.45;;;;;;;;;;5074006;28;20052;-73
2022/11/03 06:54:54;;;;;;;13.35;2.28;;;;;;;;;;5073679;28;20048;-73
2022/11/03 06:57:20;;;;;;;;;;;;;;;;;;5074318;28;20049;-73
2022/11/03 06:59:47;;;;;;;8.15;2.30;;;;;;;;;;5073570;28;19924;-74
2022/11/03 07:02:50;;;;;;;6.60;1.55;;;;;;;;;;5073859;28;20059;-73
2022/11/03 07:05:22;;;;;;;9.70;2.22;;;;;;;;;;5073749;28;20058;-73
2022/11/03 07:07:49;;;;;;;10.57;1.77;;;;;;;;;;5072408;28;20044;-73
2022/11/03 07:10:15;;;;;;;8.53;1.70;;;;;;;;;;5073218;28;20049;-74
2022/11/03 07:12:42;;;;;;;6.60;1.65;;;;;;;;;;5073572;28;20278;-73
2022/11/03 07:15:26;;;;;;;8.77;2.10;;;;;;;;;;5073530;28;20043;-73
2022/11/03 07:17:53;;;;;;;9.93;2.13;;;;;;;;;;5073792;28;20050;-73
2022/11/03 07:20:20;;;;;;;7.18;1.75;;;;;;;;;;5073207;28;20052;-72
2022/11/03 07:22:47;;;;;;;5.22;1.48;;;;;;;;;;5073335;28;20104;-73
2022/11/03 07:25:20;;;;;;;12.10;1.93;;;;;;;;;;5073257;28;20047;-73
2022/11/03 07:27:51;;;;;;;7.57;1.67;;;;;;;;;;5073270;28;20139;-73
2022/11/03 07:30:19;;;;;;;7.10;2.08;;;;;;;;;;5072643;28;20055;-72
2022/11/03 07:32:47;;;;;;;5.50;1.27;;;;;;;;;;5073224;28;20040;-72
2022/11/03 07:35:16;;;;;;;8.85;1.17;;;;;;;;;;5072721;28;20044;-72
2022/11/03 07:37:43;;;;;;;4.15;1.17;;;;;;;;;;5071480;28;20040;-72
2022/11/03 07:40:18;;;;;;;7.30;1.67;;;;;;;;;;5072850;28;20048;-72
2022/11/03 07:42:44;;;;;;;6.07;1.55;;;;;;;;;;5072626;28;20492;-75
2022/11/03 07:45:32;;;;;;;9.95;1.50;;;;;;;;;;5072411;28;20052;-74
2022/11/03 07:47:59;;;;;;;3.53;1.40;;;;;;;;;;5055217;28;20052;-76
2022/11/03 07:50:29;;;;;;;6.45;1.45;;;;;;;;;;5071359;28;20044;-74
2022/11/03 07:52:56;;;;;;;4.00;1.73;;;;;;;;;;5059543;28;20068;-72
2022/11/03 07:55:22;;;;;;;4.85;1.52;;;;;;;;;;5059804;28;20049;-74
2022/11/03 07:57:48;;;;;;;8.70;1.45;;;;;;;;;;5070921;28;20045;-74
2022/11/03 08:00:21;;;;;;;5.97;1.58;;;;;;;;;;5072092;28;20048;-76
2022/11/03 08:02:50;;;;;;;5.72;1.42;;;;;;;;;;5071540;28;20143;-73
2022/11/03 08:05:16;;;;;;;5.72;1.35;;;;;;;;;;5070711;28;20550;-73
2022/11/03 08:07:47;;;;;;;4.65;1.10;;;;;;;;;;5070692;28;20057;-72
2022/11/03 08:10:14;;;;;;;4.50;1.38;;;;;;;;;;5071824;28;20044;-74
2022/11/03 08:12:40;;;;;;;4.88;1.65;;;;;;;;;;5071273;28;20083;-78
2022/11/03 08:15:07;;;;;;;8.75;2.38;;;;;;;;;;5063678;28;20045;-78
2022/11/03 08:17:33;;;;;;;6.28;1.80;;;;;;;;;;5066122;28;20049;-74
2022/11/03 08:19:59;;;;;;;6.25;1.42;;;;;;;;;;5072008;28;20056;-74
2022/11/03 08:22:26;;;;;;;6.75;1.25;;;;;;;;;;5072104;28;20079;-74
2022/11/03 08:24:52;;;;;;;7.30;2.10;;;;;;;;;;5072156;28;20056;-74
2022/11/03 08:27:19;;;;;;;5.55;2.40;;;;;;;;;;5072387;28;20082;-77
2022/11/03 08:29:45;;;;;;;10.13;2.10;;;;;;;;;;5072031;28;20055;-76
2022/11/03 08:32:11;;;;;;;7.55;1.92;;;;;;;;;;5061093;28;20041;-72
2022/11/03 08:34:38;;;;;;;7.47;2.40;;;;;;;;;;5063099;28;20047;-71
2022/11/03 08:37:04;;;;;;;9.82;2.65;;;;;;;;;;5051666;28;20053;-74
2022/11/03 08:39:30;;;;;;;6.65;1.88;;;;;;;;;;5058710;28;20510;-74
2022/11/03 08:41:57;;;;;;;7.75;2.60;;;;;;;;;;5071994;28;20407;-75
2022/11/03 08:44:23;;;;;;;8.02;2.75;;;;;;;;;;5060748;28;20127;-73
2022/11/03 08:46:50;;;;;;;7.18;2.20;;;;;;;;;;5070276;28;20392;-73
2022/11/03 08:49:16;;;;;;;8.82;2.28;;;;;;;;;;5071136;28;20044;-73
2022/11/03 08:51:43;;;;;;;10.13;3.05;;;;;;;;;;5071198;28;20415;-75
2022/11/03 08:54:10;;;;;;;6.63;2.88;;;;;;;;;;5071269;28;20040;-74
2022/11/03 08:56:36;;;;;;;7.22;1.88;;;;;;;;;;5057971;28;20084;-76
2022/11/03 08:59:03;;;;;;;6.13;1.60;;;;;;;;;;5049952;28;20048;-77
2022/11/03 09:01:29;;;;;;;5.10;1.83;;;;;;;;;;5061330;28;20056;-74
2022/11/03 09:03:56;;;;;;;6.40;2.00;;;;;;;;;;5074001;28;20060;-75
2022/11/03 09:06:22;;;;;;;6.25;1.67;;;;;;;;;;5078446;28;20052;-75
2022/11/03 09:08:48;;;;;;;6.53;2.20;;;;;;;;;;5064051;28;20063;-75
2022/11/03 09:11:35;;;;;;;6.32;1.58;;;;;;;;;;5076946;28;20098;-74
2022/11/03 09:14:01;;;;;;;5.78;1.90;;;;;;;;;;5077946;28;20533;-75
2022/11/03 09:16:27;;;;;;;3.95;1.40;;;;;;;;;;5077269;28;20042;-75
2022/11/03 09:18:54;;;;;;;5.35;1.27;;;;;;;;;;5077880;28;20053;-74
2022/11/03 09:21:20;;;;;;;7.78;1.27;;;;;;;;;;5076241;28;20051;-75
2022/11/03 09:23:47;;;;;;;4.88;1.50;;;;;;;;;;5076899;28;20500;-75
2022/11/03 09:26:13;;;;;;;5.88;1.40;;;;;;;;;;5076112;28;20050;-81
2022/11/03 09:28:39;;;;;;;6.53;1.13;;;;;;;;;;5078014;28;20050;-73
2022/11/03 09:31:06;;;;;;;5.90;1.25;;;;;;;;;;5077288;28;20506;-74
2022/11/03 09:33:32;;;;;;;5.97;1.20;;;;;;;;;;5064085;28;20043;-71
2022/11/03 09:36:00;;;;;;;9.02;1.67;;;;;;;;;;5076110;28;20432;-73
2022/11/03 09:38:26;;;;;;;5.13;1.75;;;;;;;;;;5075962;28;20040;-71
2022/11/03 09:40:53;;;;;;;8.82;1.80;;;;;;;;;;5077672;28;20052;-69
2022/11/03 09:43:20;;;;;;;7.37;1.77;;;;;;;;;;5077475;28;20495;-69
2022/11/03 09:45:46;;;;;;;5.40;1.27;;;;;;;;;;5068970;28;20102;-70
2022/11/03 09:48:13;;;;;;;5.43;1.05;;;;;;;;;;5077040;28;20143;-68
2022/11/03 09:50:39;;;;;;;7.85;1.55;;;;;;;;;;5077854;28;20044;-67
2022/11/03 09:53:08;;;;;;;3.95;1.00;;;;;;;;;;5077846;28;20063;-69
2022/11/03 09:55:35;;;;;;;5.38;0.95;;;;;;;;;;5077618;28;20703;-73
2022/11/03 09:58:09;;;;;;;5.97;1.23;;;;;;;;;;5077926;28;20044;-73
2022/11/03 10:00:35;;;;;;;5.32;1.00;;;;;;;;;;5077620;28;20082;-73
2022/11/03 10:03:02;;;;;;;4.85;1.10;;;;;;;;;;5061292;28;20044;-71
2022/11/03 10:05:29;;;;;;;5.88;1.20;;;;;;;;;;5077594;28;20135;-72
2022/11/03 10:07:57;;;;;;;5.10;1.58;;;;;;;;;;5077833;28;20056;-72
2022/11/03 10:10:24;;;;;;;5.53;1.90;;;;;;;;;;5076268;28;20155;-72
2022/11/03 10:12:52;;;;;;;5.93;1.48;;;;;;;;;;5076692;28;20070;-72
2022/11/03 10:15:19;;;;;;;6.13;1.73;;;;;;;;;;5076439;28;20119;-72
2022/11/03 10:17:46;;;;;;;4.68;1.55;;;;;;;;;;5072877;28;20049;-71
2022/11/03 10:20:13;;;;;;;4.18;1.30;;;;;;;;;;5072895;28;20484;-72
2022/11/03 10:22:41;;;;;;;7.60;2.00;;;;;;;;;;5074568;28;20056;-72
2022/11/03 10:25:26;;;;;;;5.03;1.50;;;;;;;;;;5074391;28;20048;-72
2022/11/03 10:28:09;;;;;;;3.30;1.05;;;;;;;;;;5074166;28;20416;-72
2022/11/03 10:30:40;;;;;;;;;;;;;;;;;;5047932;28;20136;-72
2022/11/03 10:33:27;;;;;;;3.55;1.20;;;;;;;;;;5074128;28;19921;-72
2022/11/03 10:35:55;;;;;;;5.15;1.83;;;;;;;;;;5074420;28;20062;-72
2022/11/03 10:38:29;;;;;;;4.65;1.80;;;;;;;;;;5073986;28;20377;-72
2022/11/03 10:41:07;;;;;;;5.25;1.50;;;;;;;;;;5074260;28;20045;-72
2022/11/03 10:43:34;;;;;;;3.10;1.50;;;;;;;;;;5074266;28;20063;-72
2022/11/03 10:46:11;;;;;;;2.30;1.10;;;;;;;;;;5073781;28;20052;-72
2022/11/03 10:49:02;;;;;;;3.38;0.88;;;;;;;;;;5073832;28;20060;-72
2022/11/03 10:51:29;;;;;;;3.75;1.30;;;;;;;;;;5074024;28;20076;-72
2022/11/03 10:53:55;;;;;;;2.53;1.08;;;;;;;;;;5073938;28;20053;-72
2022/11/03 10:56:22;;;;;;;3.85;1.10;;;;;;;;;;5073585;28;20047;-72
2022/11/03 10:58:48;;;;;;;3.30;0.82;;;;;;;;;;5073650;28;20049;-71
2022/11/03 11:01:15;;;;;;;3.50;1.10;;;;;;;;;;5073479;28;20060;-71
2022/11/03 11:03:42;;;;;;;3.55;1.10;;;;;;;;;;5073773;28;20281;-71
2022/11/03 11:06:26;;;;;;;2.95;0.88;;;;;;;;;;5073617;28;20056;-72
2022/11/03 11:08:53;;;;;;;1.88;0.70;;;;;;;;;;5073531;28;20048;-71
2022/11/03 11:11:25;;;;;;;2.45;0.77;;;;;;;;;;5072475;28;20105;-71
2022/11/03 11:14:10;;;;;;;6.00;3.60;;;;;;;;;;5073374;28;20535;-71
2022/11/03 11:16:47;;;;;;;2.05;0.73;;;;;;;;;;5073401;28;20641;-71
2022/11/03 11:19:13;;;;;;;2.05;0.70;;;;;;;;;;5073404;28;20055;-71
2022/11/03 11:21:40;;;;;;;2.88;1.65;;;;;;;;;;5072311;28;20052;-71
2022/11/03 11:24:10;;;;;;;3.10;1.90;;;;;;;;;;5073435;28;20416;-71
2022/11/03 11:26:37;;;;;;;2.33;1.63;;;;;;;;;;5072399;28;20423;-71
2022/11/03 11:29:10;;;;;;;2.42;0.43;;;;;;;;;;5073241;28;20060;-72
2022/11/03 11:31:37;;;;;;;2.05;0.73;;;;;;;;;;5071841;28;20412;-72
2022/11/03 11:34:03;;;;;;;;;;;;;;;;;;5073392;28;20059;-72
2022/11/03 11:36:30;;;;;;;1.33;0.35;;;;;;;;;;5073484;28;19931;-72
2022/11/03 11:38:57;;;;;;;1.83;0.50;;;;;;;;;;5072929;28;20055;-72
2022/11/03 11:41:23;;;;;;;;;;;;;;;;;;5073147;28;20048;-72
2022/11/03 11:43:49;;;;;;;3.08;0.70;;;;;;;;;;5072686;28;20413;-72
2022/11/03 11:46:22;;;;;;;2.10;0.60;;;;;;;;;;5072406;28;20054;-72
2022/11/03 11:48:58;;;;;;;1.25;0.38;;;;;;;;;;5071457;28;20055;-71
2022/11/03 11:51:24;;;;;;;1.90;0.50;;;;;;;;;;5072929;28;20041;-72
2022/11/03 11:53:51;;;;;;;3.20;0.80;;;;;;;;;;5072764;28;20102;-72
2022/11/03 11:56:44;;;;;;;2.95;0.75;;;;;;;;;;5072645;28;20041;-71
2022/11/03 11:59:28;;;;;;;4.80;0.90;;;;;;;;;;5072426;28;20055;-71
2022/11/03 12:01:55;;;;;;;4.25;0.88;;;;;;;;;;5072566;28;20052;-71
2022/11/03 12:04:22;;;;;;;;;;;;;;;;;;5072965;28;20053;-71
2022/11/03 12:06:49;;;;;;;3.25;0.80;;;;;;;;;;5072307;28;19924;-71
2022/11/03 12:09:17;;;;;;;4.07;0.90;;;;;;;;;;5072469;28;20053;-71
2022/11/03 12:11:44;;;;;;;3.28;0.50;;;;;;;;;;5072575;28;20053;-71
2022/11/03 12:14:21;;;;;;;2.42;0.77;;;;;;;;;;5072312;28;20516;-71
2022/11/03 12:16:48;;;;;;;2.25;0.70;;;;;;;;;;5072276;28;20044;-71
2022/11/03 12:19:33;;;;;;;4.68;1.02;;;;;;;;;;5072243;28;20393;-71
2022/11/03 12:22:00;;;;;;;2.65;1.08;;;;;;;;;;5072006;28;20052;-71
2022/11/03 12:24:27;;;;;;;4.63;1.50;;;;;;;;;;5072027;28;20056;-71
2022/11/03 12:26:53;;;;;;;3.37;0.87;;;;;;;;;;5072195;28;20044;-70
2022/11/03 12:29:19;;;;;;;4.20;0.95;;;;;;;;;;5072254;28;20288;-71
2022/11/03 12:31:46;;;;;;;4.00;0.80;;;;;;;;;;5072049;28;20052;-71
2022/11/03 12:34:12;;;;;;;5.57;1.20;;;;;;;;;;5072250;28;20407;-71
2022/11/03 12:36:39;;;;;;;5.53;0.90;;;;;;;;;;5072041;28;20052;-71
2022/11/03 12:39:05;;;;;;;1.77;0.70;;;;;;;;;;5069783;28;20044;-71
2022/11/03 12:41:31;;;;;;;2.90;0.90;;;;;;;;;;5071757;28;20044;-71
2022/11/03 12:43:58;;;;;;;4.13;1.00;;;;;;;;;;5071670;28;20506;-70
2022/11/03 12:46:24;;;;;;;3.45;0.80;;;;;;;;;;5071922;28;20055;-71
2022/11/03 12:48:51;;;;;;;8.63;2.50;;;;;;;;;;5071832;28;20089;-70
2022/11/03 12:51:26;;;;;;;3.25;0.80;;;;;;;;;;5070422;28;20050;-70
2022/11/03 12:53:53;;;;;;;4.60;1.15;;;;;;;;;;5071611;28;20059;-70
2022/11/03 12:56:19;;;;;;;3.17;0.80;;;;;;;;;;5071839;28;20373;-71
2022/11/03 12:58:46;;;;;;;1.23;0.30;;;;;;;;;;5070680;28;20058;-70
2022/11/03 13:01:12;;;;;;;1.95;0.38;;;;;;;;;;5071620;28;20131;-70
2022/11/03 13:03:39;;;;;;;1.38;0.38;;;;;;;;;;5071867;28;20135;-70
2022/11/03 13:06:08;;;;;;;3.15;0.43;;;;;;;;;;5072083;28;20139;-70
2022/11/03 13:08:36;;;;;;;4.43;1.08;;;;;;;;;;5071765;28;20053;-71
2022/11/03 13:11:02;;;;;;;4.10;1.30;;;;;;;;;;5070463;28;20045;-71
2022/11/03 13:13:29;;;;;;;1.90;0.88;;;;;;;;;;5071393;28;20043;-71
2022/11/03 13:15:55;;;;;;;1.13;0.30;;;;;;;;;;5071459;28;20052;-71
2022/11/03 13:18:22;;;;;;;1.00;0.47;;;;;;;;;;5071457;28;20037;-71
2022/11/03 13:20:48;;;;;;;1.15;0.40;;;;;;;;;;5071391;28;20475;-71
2022/11/03 13:23:14;;;;;;;2.70;0.30;;;;;;;;;;5071447;28;20052;-72
2022/11/03 13:25:47;;;;;;;3.17;0.38;;;;;;;;;;5071579;28;20061;-72
2022/11/03 13:28:13;;;;;;;1.33;0.30;;;;;;;;;;5071437;28;20048;-72
2022/11/03 13:30:40;;;;;;;0.55;0.35;;;;;;;;;;5070061;28;20476;-70
2022/11/03 13:33:06;;;;;;;0.55;0.30;;;;;;;;;;5071394;28;20511;-69
2022/11/03 13:35:33;;;;;;;1.20;0.37;;;;;;;;;;5071178;28;20136;-69
2022/11/03 13:37:59;;;;;;;1.45;0.38;;;;;;;;;;5071559;28;20292;-69
2022/11/03 13:40:26;;;;;;;0.73;0.20;;;;;;;;;;5071525;28;20053;-69
2022/11/03 13:43:12;;;;;;;0.67;0.23;;;;;;;;;;5071199;28;20514;-69
2022/11/03 13:45:38;;;;;;;2.03;1.13;;;;;;;;;;5071077;28;20059;-71
2022/11/03 13:48:05;;;;;;;3.83;2.22;;;;;;;;;;5069780;28;20055;-72
2022/11/03 13:50:52;;;;;;;13.90;10.07;;;;;;;;;;5073171;28;20571;-72
2022/11/03 13:53:19;;;;;;;6.03;4.50;;;;;;;;;;5074966;28;20053;-72
2022/11/03 13:56:05;;;;;;;2.80;1.83;;;;;;;;;;5074771;28;20059;-72
2022/11/03 13:58:35;;;;;;;1.35;1.10;;;;;;;;;;5074718;28;20051;-72
2022/11/03 14:01:21;;;;;;;7.10;5.40;;;;;;;;;;5074504;28;20473;-72
2022/11/03 14:03:48;;;;;;;2.43;2.00;;;;;;;;;;5074941;28;20056;-72
2022/11/03 14:06:35;;;;;;;0.90;0.40;;;;;;;;;;5074631;28;20281;-73
2022/11/03 14:09:01;;;;;;;0.80;0.25;;;;;;;;;;5074466;28;20056;-73
2022/11/03 14:14:12;;;;;;;1.30;0.20;;;;;;;;;;5074651;28;20071;-73
2022/11/03 14:16:39;;;;;;;2.13;0.50;;;;;;;;;;5074545;28;20047;-70
2022/11/03 14:19:05;;;;;;;2.23;0.40;;;;;;;;;;5074420;28;20399;-70
2022/11/03 14:21:32;;;;;;;0.63;0.40;;;;;;;;;;5074249;28;20548;-70
2022/11/03 14:23:58;;;;;;;1.63;0.60;;;;;;;;;;5074515;28;20281;-72
2022/11/03 14:26:25;;;;;;;1.97;0.50;;;;;;;;;;5074253;28;20514;-70
2022/11/03 14:29:08;;;;;;;0.57;0.40;;;;;;;;;;5074751;28;20143;-70
2022/11/03 14:31:34;;;;;;;2.70;0.50;;;;;;;;;;5074015;28;20053;-70
2022/11/03 14:34:01;;;;;;;0.60;0.40;;;;;;;;;;5074005;28;20044;-70
2022/11/03 14:36:27;;;;;;;0.67;0.30;;;;;;;;;;5074089;28;20407;-70
2022/11/03 14:38:54;;;;;;;1.20;0.38;;;;;;;;;;5073957;28;20055;-70
2022/11/03 14:44:06;;;;;;;1.73;0.40;;;;;;;;;;5074111;28;20502;-70
2022/11/03 14:46:32;;;;;;;2.60;0.40;;;;;;;;;;5074087;28;20055;-70
2022/11/03 14:49:00;;;;;;;1.10;0.40;;;;;;;;;;5074217;28;20044;-70
2022/11/03 14:51:27;;;;;;;1.55;0.50;;;;;;;;;;5072662;28;20048;-70
2022/11/03 14:53:54;;;;;;;1.30;0.50;;;;;;;;;;5073796;28;20052;-70
2022/11/03 14:56:20;;;;;;;3.10;0.80;;;;;;;;;;5073751;28;20403;-70
2022/11/03 14:58:47;;;;;;;1.65;0.68;;;;;;;;;;5073951;28;20044;-70
2022/11/03 15:01:13;;;;;;;1.52;0.60;;;;;;;;;;5071784;28;20058;-70
2022/11/03 15:03:40;;;;;;;1.13;0.60;;;;;;;;;;5073609;28;20040;-70
2022/11/03 15:06:07;;;;;;;2.47;0.65;;;;;;;;;;5073633;28;20483;-70
2022/11/03 15:08:33;;;;;;;1.73;0.43;;;;;;;;;;5073758;28;20049;-70
2022/11/03 15:10:59;;;;;;;1.88;0.52;;;;;;;;;;5073429;28;20049;-70
2022/11/03 15:13:26;;;;;;;2.22;0.75;;;;;;;;;;5073532;28;20051;-70
2022/11/03 15:15:52;;;;;;;3.53;0.75;;;;;;;;;;5073606;28;20044;-70
2022/11/03 15:18:18;;;;;;;3.97;0.60;;;;;;;;;;5073254;28;20051;-70